createdAt,value
2023-04-15T00:04:46.984Z,30.55
2023-04-15T00:10:31.574Z,30.62
2023-04-15T00:16:18.422Z,30.63
2023-04-15T00:22:01.555Z,30.64
2023-04-15T00:27:49.247Z,30.62
2023-04-15T00:33:31.596Z,30.74
2023-04-15T00:38:44.294Z,30.82
2023-04-15T00:44:32.959Z,30.85
2023-04-15T00:50:18.738Z,30.92
2023-04-15T00:56:05.092Z,30.84
2023-04-15T01:01:53.249Z,31.04
2023-04-15T01:07:10.056Z,31.02
2023-04-15T01:13:01.640Z,31.08
2023-04-15T01:18:10.529Z,31.10
2023-04-15T01:23:20.250Z,31.03
2023-04-15T01:28:45.396Z,31.17
2023-04-15T01:34:02.974Z,31.03
2023-04-15T01:39:52.573Z,30.79
2023-04-15T01:45:19.718Z,31.08
2023-04-15T01:50:55.417Z,30.95
2023-04-15T01:56:48.999Z,30.65
2023-04-15T02:01:59.774Z,30.72
2023-04-15T02:07:42.206Z,30.59
2023-04-15T02:13:12.706Z,30.59
2023-04-15T02:18:35.109Z,30.44
2023-04-15T02:24:25.547Z,30.58
2023-04-15T02:29:15.075Z,30.63
2023-04-15T02:34:22.956Z,30.65
2023-04-15T02:39:30.479Z,30.75
2023-04-15T02:44:37.752Z,30.85
2023-04-15T02:49:48.073Z,30.56
2023-04-15T02:54:55.519Z,30.25
2023-04-15T03:00:02.855Z,30.59
2023-04-15T03:05:10.273Z,29.87
2023-04-15T03:10:18.471Z,30.78
2023-04-15T03:15:25.774Z,30.46
2023-04-15T03:20:33.137Z,30.25
2023-04-15T03:25:40.305Z,30.55
2023-04-15T03:30:47.523Z,30.53
2023-04-15T03:35:54.820Z,30.96
2023-04-15T03:41:02.098Z,30.68
2023-04-15T03:46:09.337Z,30.33
2023-04-15T03:51:16.532Z,30.81
2023-04-15T03:56:23.731Z,30.78
2023-04-15T04:01:31.006Z,31.08
2023-04-15T04:06:38.306Z,30.72
2023-04-15T04:11:45.577Z,30.72
2023-04-15T04:16:52.817Z,31.09
2023-04-15T04:21:59.973Z,30.86
2023-04-15T04:27:07.215Z,30.74
2023-04-15T04:32:14.542Z,30.95
2023-04-15T04:37:21.713Z,31.20
2023-04-15T04:42:28.880Z,30.78
2023-04-15T04:47:36.150Z,30.90
2023-04-15T04:52:43.352Z,30.55
2023-04-15T04:57:50.544Z,31.13
2023-04-15T05:02:57.932Z,30.97
2023-04-15T05:08:05.305Z,30.98
2023-04-15T05:13:12.580Z,30.95
2023-04-15T05:18:19.828Z,30.97
2023-04-15T05:23:27.079Z,31.09
2023-04-15T05:28:34.382Z,31.20
2023-04-15T05:33:42.024Z,31.46
2023-04-15T05:38:49.545Z,31.04
2023-04-15T05:44:06.125Z,31.19
2023-04-15T05:49:13.954Z,31.27
2023-04-15T05:54:21.389Z,31.16
2023-04-15T05:59:29.075Z,30.94
2023-04-15T06:04:44.882Z,30.85
2023-04-15T06:09:52.445Z,31.24
2023-04-15T06:15:07.515Z,31.03
2023-04-15T06:20:15.009Z,31.01
2023-04-15T06:25:57.975Z,31.12
2023-04-15T06:31:08.720Z,31.17
2023-04-15T06:36:56.387Z,31.36
2023-04-15T06:42:12.052Z,31.46
2023-04-15T06:47:37.135Z,31.30
2023-04-15T06:52:32.018Z,31.19
2023-04-15T06:57:39.323Z,30.94
2023-04-15T07:02:46.687Z,31.23
2023-04-15T07:07:54.111Z,30.96
2023-04-15T07:13:11.248Z,31.23
2023-04-15T07:18:53.679Z,31.35
2023-04-15T07:24:01.141Z,31.37
2023-04-15T07:29:16.272Z,31.45
2023-04-15T07:35:05.665Z,31.34
2023-04-15T07:40:28.325Z,31.35
2023-04-15T07:45:36.087Z,31.56
2023-04-15T07:51:02.290Z,31.39
2023-04-15T07:56:09.974Z,31.46
2023-04-15T08:01:52.553Z,31.23
2023-04-15T08:07:39.321Z,31.46
2023-04-15T08:12:46.589Z,31.45
2023-04-15T08:17:54.117Z,31.40
2023-04-15T08:23:06.267Z,31.44
2023-04-15T08:28:28.942Z,31.65
2023-04-15T08:33:36.289Z,32.00
2023-04-15T08:38:43.455Z,33.01
2023-04-15T08:43:50.715Z,33.02
2023-04-15T08:48:57.986Z,32.97
2023-04-15T08:54:05.092Z,32.89
2023-04-15T08:59:12.278Z,32.67
2023-04-15T09:04:19.672Z,32.44
2023-04-15T09:09:26.652Z,32.30
2023-04-15T09:14:33.914Z,32.10
2023-04-15T09:19:42.723Z,31.77
2023-04-15T09:24:49.884Z,31.78
2023-04-15T09:29:57.103Z,31.63
2023-04-15T09:35:04.281Z,31.62
2023-04-15T09:40:11.443Z,31.61
2023-04-15T09:45:18.637Z,31.54
2023-04-15T09:50:25.840Z,31.70
2023-04-15T09:55:32.995Z,31.44
2023-04-15T10:00:40.309Z,31.55
2023-04-15T10:05:48.806Z,31.37
2023-04-15T10:10:55.969Z,31.30
2023-04-15T10:16:03.220Z,31.26
2023-04-15T10:21:10.515Z,31.30
2023-04-15T10:26:17.775Z,31.31
2023-04-15T10:31:24.925Z,31.17
2023-04-15T10:36:32.116Z,29.52
2023-04-15T10:41:39.299Z,30.37
2023-04-15T10:46:46.625Z,30.40
2023-04-15T10:51:53.815Z,29.92
2023-04-15T10:57:00.946Z,30.03
2023-04-15T11:02:08.327Z,30.24
2023-04-15T11:07:15.543Z,30.62
2023-04-15T11:12:22.709Z,29.86
2023-04-15T11:17:30.024Z,29.18
2023-04-15T11:22:37.176Z,28.99
2023-04-15T11:27:44.333Z,28.63
2023-04-15T11:32:51.541Z,29.35
2023-04-15T11:37:58.745Z,28.61
2023-04-15T11:43:06.006Z,28.73
2023-04-15T11:48:13.252Z,28.82
2023-04-15T11:53:20.513Z,28.89
2023-04-15T11:58:27.760Z,28.81
2023-04-15T12:03:35.078Z,28.77
2023-04-15T12:08:42.266Z,28.72
2023-04-15T12:13:49.482Z,28.19
2023-04-15T12:18:56.708Z,28.63
2023-04-15T12:24:04.366Z,28.12
2023-04-15T12:29:11.095Z,28.32
2023-04-15T12:34:20.184Z,28.53
2023-04-15T12:39:29.281Z,28.28
2023-04-15T12:44:34.650Z,28.55
2023-04-15T12:49:41.862Z,29.02
2023-04-15T12:54:49.155Z,29.07
2023-04-15T12:59:56.429Z,29.08
2023-04-15T13:05:03.650Z,29.85
2023-04-15T13:10:10.964Z,29.33
2023-04-15T13:15:18.703Z,28.76
2023-04-15T13:20:25.950Z,29.18
2023-04-15T13:25:33.191Z,29.67
2023-04-15T13:30:40.509Z,29.27
2023-04-15T13:35:47.692Z,29.15
2023-04-15T13:40:55.153Z,29.50
2023-04-15T13:46:02.524Z,29.59
2023-04-15T13:51:12.970Z,29.86
2023-04-15T13:56:20.250Z,29.47
2023-04-15T14:01:27.551Z,29.37
2023-04-15T14:06:34.744Z,28.66
2023-04-15T14:11:42.173Z,30.24
2023-04-15T14:16:49.534Z,29.82
2023-04-15T14:21:56.769Z,29.88
2023-04-15T14:27:06.019Z,29.82
2023-04-15T14:32:14.404Z,29.82
2023-04-15T14:37:20.726Z,29.21
2023-04-15T14:42:28.266Z,29.27
2023-04-15T14:47:35.533Z,29.24
2023-04-15T14:52:42.816Z,28.92
2023-04-15T14:57:50.309Z,29.05
2023-04-15T15:02:57.636Z,29.01
2023-04-15T15:08:04.849Z,28.97
2023-04-15T15:13:12.252Z,28.92
2023-04-15T15:18:19.794Z,28.95
2023-04-15T15:23:27.729Z,28.91
2023-04-15T15:28:35.068Z,28.90
2023-04-15T15:33:42.236Z,28.97
2023-04-15T15:38:49.456Z,28.98
2023-04-15T15:43:56.705Z,29.10
2023-04-15T15:49:04.038Z,29.09
2023-04-15T15:54:11.127Z,29.18
2023-04-15T15:59:18.344Z,29.17
2023-04-15T16:04:25.768Z,29.25
2023-04-15T16:09:33.134Z,29.23
2023-04-15T16:14:40.525Z,29.30
2023-04-15T16:19:58.001Z,29.27
2023-04-15T16:24:54.940Z,29.31
2023-04-15T16:30:02.199Z,29.27
2023-04-15T16:35:09.628Z,29.34
2023-04-15T16:40:17.251Z,29.36
2023-04-15T16:45:27.932Z,29.39
2023-04-15T16:50:35.433Z,29.50
2023-04-15T16:55:43.071Z,29.50
2023-04-15T17:00:50.485Z,29.49
2023-04-15T17:05:57.644Z,29.60
2023-04-15T17:11:04.850Z,29.74
2023-04-15T17:16:12.139Z,29.93
2023-04-15T17:21:19.591Z,29.66
2023-04-15T17:26:27.011Z,29.56
2023-04-15T17:31:34.484Z,30.71
2023-04-15T17:36:41.718Z,31.70
2023-04-15T17:41:49.426Z,32.24
2023-04-15T17:46:57.205Z,32.70
2023-04-15T17:52:04.475Z,33.14
2023-04-15T17:57:11.966Z,32.92
2023-04-15T18:02:19.817Z,32.57
2023-04-15T18:07:27.061Z,32.36
2023-04-15T18:12:34.702Z,32.22
2023-04-15T18:17:42.351Z,32.22
2023-04-15T18:22:50.036Z,32.20
2023-04-15T18:27:57.539Z,32.14
2023-04-15T18:33:05.189Z,32.07
2023-04-15T18:38:12.708Z,32.01
2023-04-15T18:43:20.396Z,31.93
2023-04-15T18:48:28.072Z,31.98
2023-04-15T18:53:35.723Z,32.43
2023-04-15T18:59:26.317Z,32.35
2023-04-15T19:03:51.181Z,32.30
2023-04-15T19:08:58.595Z,32.34
2023-04-15T19:14:05.826Z,32.35
2023-04-15T19:19:13.478Z,32.12
2023-04-15T19:24:20.816Z,32.13
2023-04-15T19:29:29.131Z,32.17
2023-04-15T19:34:36.952Z,32.24
2023-04-15T19:39:44.573Z,32.23
2023-04-15T19:44:52.279Z,32.33
2023-04-15T19:50:00.035Z,32.21
2023-04-15T19:55:07.722Z,32.26
2023-04-15T20:00:15.332Z,32.17
2023-04-15T20:05:22.997Z,32.09
2023-04-15T20:10:30.558Z,32.08
2023-04-15T20:15:38.294Z,32.01
2023-04-15T20:20:45.910Z,31.99
2023-04-15T20:25:53.495Z,31.93
2023-04-15T20:31:01.246Z,31.97
2023-04-15T20:36:09.890Z,31.98
2023-04-15T20:41:17.585Z,32.01
2023-04-15T20:46:27.176Z,31.85
2023-04-15T20:51:32.523Z,31.84
2023-04-15T20:56:40.216Z,31.72
2023-04-15T21:01:47.670Z,31.61
2023-04-15T21:06:56.099Z,31.50
2023-04-15T21:12:03.327Z,31.41
2023-04-15T21:17:11.374Z,31.47
2023-04-15T21:22:17.902Z,31.40
2023-04-15T21:27:25.085Z,31.42
2023-04-15T21:32:32.277Z,31.39
2023-04-15T21:37:39.550Z,31.33
2023-04-15T21:42:47.343Z,31.17
2023-04-15T21:48:05.845Z,31.15
2023-04-15T21:53:01.910Z,31.15
2023-04-15T21:58:09.252Z,31.17
2023-04-15T22:03:16.611Z,31.17
2023-04-15T22:08:23.794Z,31.22
2023-04-15T22:13:31.030Z,31.24
2023-04-15T22:18:38.323Z,31.40
2023-04-15T22:23:45.586Z,31.33
2023-04-15T22:28:52.830Z,31.25
2023-04-15T22:34:00.176Z,31.19
2023-04-15T22:39:07.899Z,31.19
2023-04-15T22:44:14.924Z,31.05
2023-04-15T22:49:22.121Z,31.05
2023-04-15T22:54:29.863Z,31.00
2023-04-15T22:59:37.133Z,30.95
2023-04-15T23:04:44.589Z,30.90
2023-04-15T23:09:56.021Z,30.95
2023-04-15T23:15:04.180Z,30.95
2023-04-15T23:20:46.622Z,30.85
2023-04-15T23:26:17.086Z,30.81
2023-04-15T23:31:12.444Z,30.82
2023-04-15T23:36:35.444Z,30.86
2023-04-15T23:42:03.928Z,30.94
2023-04-15T23:46:56.053Z,31.03
2023-04-15T23:52:12.144Z,31.12
2023-04-15T23:57:40.816Z,31.28
